Time;durP1;ratioP1;P1;durP2;ratioP2;P2;SDS_P1;SDS_P2;PMS_P1;PMS_P2;Temp;Humidity;BMP_temperature;BMP_pressure;BME280_temperature;BME280_humidity;BME280_pressure;Samples;Min_cycle;Max_cycle;Signal;HPM_P1;HPM_P2
2021/06/17 00:00:06;;;;;;;6.20;5.60;;;13.90;1.40;;;15.68;92.01;95241.94;647557;216;31594;-69
2021/06/17 00:02:47;;;;;;;5.90;5.30;;;13.70;1.40;;;15.65;91.09;95243.27;645345;216;42218;-70
2021/06/17 00:05:29;;;;;;;6.28;5.68;;;13.70;1.40;;;15.46;93.84;95249.14;648532;216;36017;-69
2021/06/17 00:08:11;;;;;;;7.18;6.57;;;13.60;1.40;;;15.39;94.42;95246.95;647171;213;42168;-70
2021/06/17 00:10:55;;;;;;;5.87;5.30;;;13.60;1.40;;;15.38;94.97;95243.75;646064;212;41282;-70
2021/06/17 00:13:36;;;;;;;6.90;5.60;;;13.60;1.40;;;15.46;96.54;95247.83;646428;212;42104;-70
2021/06/17 00:16:16;;;;;;;7.10;6.07;;;13.70;1.40;;;15.34;99.86;95247.52;648182;216;31598;-70
2021/06/17 00:19:02;;;;;;;5.85;5.35;;;13.70;1.40;;;15.32;98.29;95250.00;646058;212;31624;-70
2021/06/17 00:21:43;;;;;;;6.55;5.95;;;13.70;1.40;;;15.28;99.09;95248.31;648950;216;31916;-70
2021/06/17 00:24:25;;;;;;;9.30;6.30;;;13.60;1.40;;;15.22;98.62;95248.31;649590;216;32827;-70
2021/06/17 00:27:09;;;;;;;6.62;6.12;;;13.60;1.40;;;15.28;99.28;95248.08;646001;212;42718;-70
2021/06/17 00:32:25;;;;;;;6.72;5.97;;;13.60;1.40;;;15.32;99.16;95244.87;646418;216;31948;-70
2021/06/17 00:35:51;;;;;;;7.00;6.40;;;13.60;1.40;;;15.30;97.06;95246.38;648382;216;31579;-69
2021/06/17 00:38:33;;;;;;;6.55;5.93;;;13.60;1.40;;;15.23;99.31;95237.39;648608;216;32138;-70
2021/06/17 00:41:14;;;;;;;6.55;5.95;;;13.50;1.40;;;15.23;98.99;95233.53;647103;216;42138;-69
2021/06/17 00:43:56;;;;;;;6.53;5.97;;;13.50;1.40;;;15.26;97.76;95230.92;647756;212;34929;-69
2021/06/17 00:46:38;;;;;;;6.80;6.10;;;13.50;1.40;;;15.30;97.24;95232.69;645177;216;31522;-69
2021/06/17 00:49:19;;;;;;;6.43;5.70;;;13.50;1.40;;;15.43;97.06;95227.28;648802;212;40090;-69
2021/06/17 00:52:03;;;;;;;6.60;5.90;;;13.50;1.40;;;15.36;96.16;95223.69;648419;212;36055;-69
2021/06/17 00:54:46;;;;;;;6.45;5.80;;;13.40;1.40;;;15.23;96.76;95227.67;618970;226;32639;-69
2021/06/17 00:57:28;;;;;;;5.87;5.25;;;13.30;1.40;;;15.35;95.64;95231.50;646890;216;33090;-69
2021/06/17 01:00:10;;;;;;;6.30;5.72;;;13.30;1.40;;;15.17;97.52;95226.25;646783;216;33705;-69
2021/06/17 01:02:52;;;;;;;6.40;5.80;;;13.30;1.40;;;15.10;97.27;95227.13;647675;212;32116;-70
2021/06/17 01:05:34;;;;;;;6.60;5.82;;;13.20;1.40;;;15.03;97.72;95223.42;648923;216;33214;-72
2021/06/17 01:08:36;;;;;;;6.25;5.75;;;13.10;1.40;;;14.98;98.04;95223.61;645487;212;31480;-70
2021/06/17 01:16:58;;;;;;;6.53;6.03;;;13.00;1.40;;;14.94;97.95;95213.00;647779;216;31459;-70
2021/06/17 01:19:51;;;;;;;6.30;5.80;;;13.00;1.40;;;14.92;100.00;95214.45;645007;216;32198;-70
2021/06/17 01:22:50;;;;;;;6.87;6.07;;;13.10;1.40;;;14.90;100.00;95216.97;646711;212;31513;-70
2021/06/17 01:25:43;;;;;;;7.20;6.60;;;13.10;1.40;;;14.90;99.24;95216.77;649052;212;31579;-68
2021/06/17 01:28:30;;;;;;;6.90;6.30;;;13.10;1.40;;;14.88;100.00;95216.91;646014;212;31550;-70
2021/06/17 01:31:15;;;;;;;6.77;6.13;;;13.10;1.40;;;14.85;100.00;95213.13;645648;212;31537;-70
2021/06/17 01:35:54;;;;;;;6.47;5.87;;;13.00;1.40;;;14.93;98.44;95212.91;648686;216;31635;-69
2021/06/17 01:38:35;;;;;;;6.20;5.60;;;13.00;1.40;;;14.91;98.20;95212.52;646888;212;31920;-70
2021/06/17 01:41:17;;;;;;;7.40;6.22;;;12.90;1.40;;;15.09;95.75;95201.56;649359;216;31947;-70
2021/06/17 01:43:59;;;;;;;6.30;5.80;;;13.10;1.40;;;14.86;99.60;95203.84;646545;216;31678;-70
2021/06/17 01:46:41;;;;;;;6.07;5.57;;;13.00;1.40;;;14.79;99.30;95200.97;644156;212;31566;-69
2021/06/17 01:49:23;;;;;;;6.60;6.00;;;12.90;1.40;;;14.70;98.30;95200.63;646695;216;31940;-69
2021/06/17 01:52:05;;;;;;;5.93;5.40;;;12.80;1.40;;;14.63;99.88;95196.54;649661;212;31587;-69
2021/06/17 01:54:48;;;;;;;6.43;5.83;;;12.80;1.40;;;14.52;100.00;95193.75;650422;212;31599;-70
2021/06/17 01:57:28;;;;;;;6.70;6.20;;;12.70;1.40;;;14.53;98.35;95194.54;645797;212;31552;-70
2021/06/17 02:00:11;;;;;;;8.07;6.23;;;12.60;1.40;;;14.59;98.26;95194.73;621255;226;31861;-69
2021/06/17 02:02:52;;;;;;;6.20;5.60;;;12.60;1.40;;;14.54;98.47;95192.30;646746;216;31742;-70
2021/06/17 02:05:34;;;;;;;6.50;5.90;;;12.50;1.40;;;14.52;97.92;95187.98;648082;216;31693;-70
2021/06/17 02:08:16;;;;;;;6.40;5.90;;;12.50;1.40;;;14.29;99.67;95194.03;648776;216;31923;-70
2021/06/17 02:10:58;;;;;;;7.05;6.45;;;12.50;1.40;;;14.29;100.00;95186.45;645899;216;31860;-70
2021/06/17 02:13:40;;;;;;;7.32;6.62;;;12.60;1.40;;;14.23;100.00;95188.30;650249;216;31561;-70
2021/06/17 02:16:21;;;;;;;7.27;6.67;;;12.60;1.40;;;14.22;100.00;95186.41;646781;216;32110;-70
2021/06/17 02:19:03;;;;;;;7.00;6.40;;;12.60;1.40;;;14.34;100.00;95186.76;620882;222;31972;-69
2021/06/17 02:21:44;;;;;;;6.70;6.10;;;12.60;1.40;;;14.40;100.00;95184.98;648301;216;42251;-70
2021/06/17 02:24:26;;;;;;;7.00;6.30;;;12.60;1.40;;;14.28;100.00;95179.70;647017;216;31806;-69
2021/06/17 02:27:09;;;;;;;6.30;5.70;;;12.60;1.40;;;14.15;100.00;95181.89;645935;216;31527;-70
2021/06/17 02:29:50;;;;;;;5.73;5.23;;;12.40;1.40;;;13.79;100.00;95183.87;648738;216;31594;-70
2021/06/17 02:32:32;;;;;;;8.40;6.00;;;12.20;1.40;;;13.86;100.00;95184.45;619553;226;31899;-70
2021/06/17 02:35:50;;;;;;;6.07;5.57;;;12.00;1.40;;;13.64;100.00;95181.61;647010;212;42240;-69
2021/06/17 02:38:33;;;;;;;6.23;5.73;;;11.90;1.40;;;13.71;100.00;95182.48;649054;216;31602;-69
2021/06/17 02:41:15;;;;;;;6.47;5.90;;;12.00;1.40;;;13.57;100.00;95179.50;652159;212;32402;-69
2021/06/17 02:43:57;;;;;;;6.10;5.50;;;11.90;1.40;;;13.55;100.00;95182.74;646673;216;42866;-70
2021/06/17 02:46:41;;;;;;;7.07;6.07;;;11.90;1.40;;;13.58;100.00;95175.14;647731;216;42206;-70
2021/06/17 02:49:23;;;;;;;6.60;6.00;;;12.00;1.40;;;13.72;100.00;95169.80;646514;216;31568;-69
2021/06/17 02:52:07;;;;;;;6.20;5.70;;;12.10;1.40;;;13.69;100.00;95162.93;648932;212;42160;-81
2021/06/17 02:54:51;;;;;;;6.73;6.13;;;11.90;1.40;;;13.55;100.00;95161.54;646660;212;42344;-70
2021/06/17 02:57:46;;;;;;;7.00;6.30;;;11.90;1.40;;;13.53;100.00;95161.84;649042;216;32833;-70
2021/06/17 03:00:29;;;;;;;6.87;6.27;;;11.90;1.40;;;13.56;100.00;95155.72;645347;212;31633;-70
2021/06/17 03:03:11;;;;;;;7.12;6.43;;;12.00;1.40;;;13.61;100.00;95154.80;647234;216;31921;-70
2021/06/17 03:05:55;;;;;;;6.97;6.27;;;12.00;1.40;;;13.67;100.00;95156.27;648740;212;31903;-69
2021/06/17 03:08:45;;;;;;;7.32;6.15;;;12.10;1.40;;;13.67;100.00;95155.78;650285;212;31629;-87
2021/06/17 03:11:28;;;;;;;7.10;6.50;;;12.00;1.40;;;13.69;100.00;95155.20;646494;216;31603;-71
2021/06/17 03:14:10;;;;;;;6.90;6.17;;;12.10;1.40;;;13.70;100.00;95153.66;647410;216;42427;-70
2021/06/17 03:16:52;;;;;;;7.10;6.40;;;12.00;1.40;;;13.60;100.00;95154.17;652534;212;33508;-69
2021/06/17 03:22:08;;;;;;;6.47;5.87;;;12.00;1.40;;;13.53;100.00;95155.38;652357;212;31500;-70
2021/06/17 03:24:49;;;;;;;6.40;5.80;;;12.00;1.40;;;13.56;100.00;95155.84;646293;213;42172;-69
2021/06/17 03:27:31;;;;;;;6.87;6.20;;;12.10;1.40;;;13.63;100.00;95159.24;647031;212;35449;-69
2021/06/17 03:30:14;;;;;;;6.63;6.03;;;12.10;1.40;;;13.56;100.00;95161.19;646908;216;42194;-70
2021/06/17 03:32:59;;;;;;;6.50;5.97;;;12.20;1.40;;;13.64;100.00;95161.27;647120;212;42193;-69
2021/06/17 03:35:51;;;;;;;6.47;5.87;;;12.20;1.40;;;13.70;100.00;95163.80;650879;212;32033;-69
2021/06/17 03:38:32;;;;;;;6.50;5.93;;;12.10;1.40;;;13.85;100.00;95169.72;647780;216;42271;-70
2021/06/17 03:41:17;;;;;;;6.80;6.20;;;12.30;1.40;;;13.97;100.00;95172.09;646679;216;31566;-69
2021/06/17 03:43:59;;;;;;;7.20;6.50;;;12.50;1.40;;;14.05;100.00;95168.56;645281;216;32537;-70
2021/06/17 03:46:40;;;;;;;6.90;6.30;;;12.40;1.40;;;14.08;100.00;95175.52;644760;212;31587;-71
2021/06/17 03:49:24;;;;;;;6.50;5.67;;;12.40;1.40;;;14.12;100.00;95175.58;645121;216;32117;-69
2021/06/17 03:52:09;;;;;;;7.53;6.73;;;12.40;1.40;;;14.17;100.00;95175.34;647232;212;42168;-70
2021/06/17 03:54:50;;;;;;;6.60;6.10;;;12.50;1.40;;;14.26;100.00;95178.81;647516;216;31581;-70
2021/06/17 03:57:32;;;;;;;7.20;6.50;;;12.50;1.40;;;14.42;100.00;95178.72;645500;212;31574;-70
2021/06/17 04:00:19;;;;;;;6.93;6.22;;;12.60;1.40;;;14.42;100.00;95180.20;649156;216;35320;-70
2021/06/17 04:03:00;;;;;;;7.30;6.50;;;12.60;1.40;;;14.44;100.00;95178.36;646199;212;31546;-70
2021/06/17 04:05:42;;;;;;;7.93;7.13;;;12.70;1.40;;;14.61;100.00;95185.70;643693;212;32019;-70
2021/06/17 04:08:24;;;;;;;7.90;6.50;;;12.90;1.40;;;14.73;100.00;95191.13;648293;216;31570;-70
2021/06/17 04:11:05;;;;;;;6.70;6.00;;;13.20;1.40;;;14.85;100.00;95193.76;645455;216;31567;-69
2021/06/17 04:13:47;;;;;;;6.90;6.30;;;13.20;1.40;;;14.88;100.00;95202.30;619489;226;42524;-70
2021/06/17 04:16:29;;;;;;;6.60;6.00;;;13.40;1.40;;;15.03;99.93;95201.06;647810;212;31726;-70
2021/06/17 04:19:10;;;;;;;7.10;6.00;;;13.40;1.40;;;15.11;98.92;95196.67;648682;216;31577;-72
2021/06/17 04:21:52;;;;;;;7.00;6.10;;;13.30;1.40;;;15.20;98.33;95197.12;649284;216;42174;-71
2021/06/17 04:24:34;;;;;;;6.73;6.13;;;13.30;1.40;;;15.30;97.81;95198.48;618800;223;31937;-70
2021/06/17 04:27:15;;;;;;;6.60;6.00;;;13.40;1.40;;;15.44;96.85;95199.48;646331;212;31562;-70
2021/06/17 04:29:58;;;;;;;6.22;5.53;;;13.50;1.40;;;15.51;96.98;95204.38;648940;212;37661;-70
2021/06/17 04:32:43;;;;;;;6.30;5.80;;;13.60;1.40;;;15.55;97.58;95203.56;647382;213;31546;-70
2021/06/17 04:35:51;;;;;;;6.37;5.78;;;13.80;1.40;;;15.71;96.71;95209.62;648076;212;31526;-70
2021/06/17 04:38:33;;;;;;;6.57;5.97;;;14.00;1.40;;;15.84;95.67;95214.13;645208;216;34453;-70
2021/06/17 04:41:15;;;;;;;6.60;6.00;;;14.10;1.40;;;15.94;95.42;95214.86;648062;216;42153;-70
2021/06/17 04:43:56;;;;;;;6.03;5.53;;;14.30;1.40;;;16.16;94.21;95212.16;645659;216;32748;-69
2021/06/17 04:46:38;;;;;;;6.18;5.60;;;14.40;1.40;;;16.30;93.86;95211.98;648715;216;31583;-71
2021/06/17 04:49:20;;;;;;;7.93;6.50;;;14.50;1.40;;;16.37;94.47;95212.88;646875;212;32362;-72
2021/06/17 04:52:02;;;;;;;6.53;5.90;;;14.60;1.40;;;16.49;94.14;95209.48;620491;226;34151;-69
2021/06/17 04:54:44;;;;;;;6.97;6.20;;;14.70;1.40;;;16.64;93.63;95210.12;646299;216;31523;-70
2021/06/17 04:57:26;;;;;;;7.10;6.50;;;14.70;1.40;;;16.79;93.33;95211.76;647668;212;42180;-70
2021/06/17 05:00:09;;;;;;;8.05;7.10;;;14.80;1.40;;;16.98;92.74;95217.31;647239;212;42334;-70
2021/06/17 05:02:50;;;;;;;6.22;5.72;;;14.90;1.40;;;17.02;93.12;95218.56;646936;214;42167;-72
2021/06/17 05:05:32;;;;;;;6.72;6.12;;;15.00;1.40;;;17.11;93.67;95216.77;647778;216;31542;-70
2021/06/17 05:10:53;;;;;;;7.30;6.70;;;15.30;1.40;;;17.40;92.44;95220.68;620567;226;32471;-70
2021/06/17 05:13:35;;;;;;;8.15;7.45;;;15.50;1.40;;;17.55;92.00;95223.20;644814;212;31556;-70
2021/06/17 05:16:17;;;;;;;10.07;9.02;;;15.60;1.40;;;17.66;91.17;95222.67;649726;216;31555;-71
2021/06/17 05:18:58;;;;;;;8.70;7.60;;;15.70;1.40;;;17.83;90.29;95229.39;619053;226;32020;-70
2021/06/17 05:21:43;;;;;;;8.38;7.50;;;15.90;1.40;;;17.93;89.17;95227.48;643904;216;31613;-71
2021/06/17 05:24:25;;;;;;;7.22;6.37;;;16.40;1.40;;;18.13;87.94;95233.10;622722;226;31892;-71
2021/06/17 05:27:07;;;;;;;7.93;6.50;;;16.70;1.40;;;18.40;87.47;95232.22;617695;226;32297;-69
2021/06/17 05:29:49;;;;;;;7.40;6.65;;;16.80;1.40;;;18.53;86.08;95231.60;645320;212;42814;-70
2021/06/17 05:32:31;;;;;;;7.55;6.50;;;16.90;1.40;;;18.70;86.54;95237.91;645480;212;31537;-70
2021/06/17 05:35:51;;;;;;;7.50;6.70;;;16.80;1.40;;;18.83;85.62;95237.65;646144;216;31625;-71
2021/06/17 05:38:33;;;;;;;7.72;6.95;;;16.90;1.40;;;18.68;87.53;95239.98;647082;212;31533;-71
2021/06/17 05:41:15;;;;;;;8.13;7.32;;;17.00;1.40;;;18.78;90.84;95237.80;645724;212;31545;-71
2021/06/17 05:43:59;;;;;;;8.02;7.20;;;17.20;1.40;;;18.85;90.64;95237.15;645886;216;31571;-70
2021/06/17 05:46:41;;;;;;;8.50;7.70;;;17.40;1.40;;;19.06;90.44;95234.78;647810;216;31563;-71
2021/06/17 05:49:24;;;;;;;7.78;7.07;;;17.50;1.40;;;19.21;88.94;95235.27;647459;216;31549;-70
2021/06/17 05:52:04;;;;;;;8.25;7.45;;;17.50;1.40;;;19.21;88.93;95235.84;620056;222;32018;-71
2021/06/17 05:54:46;;;;;;;7.65;6.90;;;17.60;1.40;;;19.24;88.69;95235.25;644120;216;31648;-71
2021/06/17 05:57:27;;;;;;;7.53;6.93;;;17.60;1.40;;;19.48;88.29;95232.70;648616;212;31797;-70
2021/06/17 06:00:16;;;;;;;8.30;7.60;;;17.70;1.40;;;19.59;86.10;95228.86;647728;216;31588;-72
2021/06/17 06:03:04;;;;;;;8.43;7.62;;;17.80;1.40;;;19.72;85.83;95225.58;647864;216;31629;-71
2021/06/17 06:05:45;;;;;;;9.40;8.40;;;18.00;1.40;;;19.98;84.51;95227.17;619452;222;31894;-70
2021/06/17 06:08:27;;;;;;;9.57;8.70;;;18.30;1.40;;;20.10;83.73;95237.13;646886;213;42943;-69
2021/06/17 06:11:09;;;;;;;9.73;8.20;;;18.50;1.40;;;20.27;82.66;95240.14;648212;216;32127;-71
2021/06/17 06:13:54;;;;;;;9.20;8.40;;;18.60;1.40;;;20.43;82.17;95244.98;647005;216;31646;-70
2021/06/17 06:16:35;;;;;;;9.77;8.77;;;18.70;1.40;;;20.40;80.92;95249.16;646213;212;31544;-70
2021/06/17 06:19:17;;;;;;;8.63;7.82;;;18.70;1.40;;;20.58;79.18;95247.55;649504;212;31639;-70
2021/06/17 06:21:59;;;;;;;7.45;6.75;;;19.00;1.40;;;20.77;78.74;95246.66;648310;212;31573;-70
2021/06/17 06:24:43;;;;;;;7.60;6.90;;;19.20;1.40;;;20.86;78.13;95244.15;645777;216;31568;-70
2021/06/17 06:27:25;;;;;;;8.93;7.30;;;19.40;1.40;;;21.00;78.43;95249.07;649199;212;31551;-70
2021/06/17 06:30:07;;;;;;;7.10;6.40;;;19.60;1.40;;;21.13;75.43;95248.16;647455;212;31586;-70
2021/06/17 06:32:49;;;;;;;8.50;5.95;;;19.70;1.40;;;21.23;75.79;95249.34;645167;212;31690;-70
2021/06/17 06:35:54;;;;;;;6.60;6.00;;;20.00;1.40;;;21.29;75.52;95248.30;644391;216;31835;-70
2021/06/17 06:38:35;;;;;;;6.75;6.15;;;20.00;1.40;;;21.42;75.80;95250.59;616884;225;32036;-70
2021/06/17 06:41:17;;;;;;;7.70;7.00;;;20.10;1.40;;;21.58;76.14;95251.19;644992;212;31532;-71
2021/06/17 06:43:59;;;;;;;6.90;6.25;;;20.20;1.40;;;21.76;76.30;95250.33;644097;216;31500;-71
2021/06/17 06:46:40;;;;;;;7.18;6.47;;;20.40;1.40;;;21.94;75.61;95247.48;647329;216;42152;-71
2021/06/17 06:49:22;;;;;;;7.00;6.30;;;20.60;1.40;;;21.97;74.82;95248.92;648066;212;31865;-71
2021/06/17 06:52:04;;;;;;;6.90;6.30;;;20.60;1.40;;;22.16;75.23;95249.12;645935;212;42182;-70
2021/06/17 06:54:46;;;;;;;6.05;5.60;;;20.60;1.40;;;22.26;74.23;95254.81;644600;216;31875;-71
2021/06/17 06:57:27;;;;;;;6.18;5.57;;;20.70;1.40;;;22.34;74.70;95262.56;646750;216;42171;-71
2021/06/17 07:00:10;;;;;;;6.70;6.20;;;21.00;1.40;;;22.56;75.41;95264.95;647623;216;31817;-71
2021/06/17 07:02:52;;;;;;;6.40;5.80;;;21.00;1.40;;;22.69;73.51;95268.31;646438;216;42453;-71
2021/06/17 07:05:37;;;;;;;6.45;5.95;;;21.20;1.40;;;22.84;73.99;95267.19;647257;216;31568;-73
2021/06/17 07:08:25;;;;;;;6.60;6.00;;;21.40;1.40;;;22.93;73.36;95270.23;646507;212;32099;-71
2021/06/17 07:11:07;;;;;;;7.05;5.72;;;21.70;1.40;;;22.93;74.15;95268.58;645169;216;32071;-70
2021/06/17 07:16:23;;;;;;;6.57;5.97;;;21.60;1.40;;;23.11;72.19;95265.84;647671;216;31684;-71
2021/06/17 07:21:39;;;;;;;6.53;5.93;;;21.90;1.40;;;23.45;70.00;95267.94;646511;212;31544;-71
2021/06/17 07:24:21;;;;;;;6.30;5.80;;;22.00;1.40;;;23.59;69.66;95269.75;647482;212;31569;-71
2021/06/17 07:27:08;;;;;;;6.15;5.53;;;22.30;1.40;;;23.70;68.72;95270.39;644803;216;31604;-71
2021/06/17 07:29:56;;;;;;;5.75;5.25;;;22.40;1.40;;;23.91;68.46;95274.78;648342;216;31611;-72
2021/06/17 07:32:38;;;;;;;5.68;4.97;;;22.50;1.40;;;24.15;65.45;95274.44;645011;216;31603;-70
2021/06/17 07:35:51;;;;;;;6.00;5.30;;;22.90;1.40;;;24.23;64.54;95278.48;646375;216;31669;-71
2021/06/17 07:38:33;;;;;;;5.47;5.07;;;23.00;1.40;;;24.34;65.28;95274.21;647137;212;31677;-70
2021/06/17 07:41:15;;;;;;;6.20;5.60;;;22.90;1.40;;;24.52;65.26;95279.27;644937;212;31827;-71
2021/06/17 07:43:56;;;;;;;7.90;5.20;;;23.20;1.40;;;24.71;65.08;95281.23;647939;212;31679;-70
2021/06/17 07:46:38;;;;;;;6.50;4.95;;;23.30;1.40;;;24.77;63.63;95279.30;648262;216;31545;-71
2021/06/17 07:49:24;;;;;;;5.45;5.03;;;23.40;1.40;;;24.87;65.67;95277.73;646563;212;31703;-70
2021/06/17 07:52:07;;;;;;;6.60;5.20;;;23.60;1.40;;;25.09;63.77;95285.20;648296;212;31771;-71
2021/06/17 07:54:49;;;;;;;5.63;5.13;;;23.70;1.40;;;25.17;62.44;95283.08;645954;212;31651;-72
2021/06/17 07:57:31;;;;;;;5.93;5.35;;;23.80;1.40;;;25.36;62.05;95283.75;647181;212;31567;-71
2021/06/17 08:00:13;;;;;;;5.20;4.70;;;23.80;1.40;;;25.61;64.83;95282.50;647730;216;31632;-71
2021/06/17 08:02:54;;;;;;;5.90;5.12;;;24.10;1.40;;;25.76;62.55;95272.70;648487;213;31511;-71
2021/06/17 08:05:36;;;;;;;6.82;5.72;;;24.20;1.40;;;25.75;62.08;95268.97;647028;216;42201;-70
2021/06/17 08:08:18;;;;;;;6.10;5.68;;;24.20;1.40;;;25.61;60.82;95267.47;621893;223;32111;-71
2021/06/17 08:10:59;;;;;;;5.43;5.03;;;24.10;1.40;;;25.76;63.01;95276.07;646720;216;32460;-70
2021/06/17 08:13:44;;;;;;;6.60;6.00;;;24.20;1.40;;;26.04;62.80;95270.34;645549;212;31545;-70
2021/06/17 08:16:28;;;;;;;6.20;5.40;;;24.50;1.40;;;26.23;60.86;95276.95;649152;216;31539;-71
2021/06/17 08:19:12;;;;;;;5.25;4.75;;;24.60;1.40;;;26.17;59.26;95276.63;649860;212;31615;-71
2021/06/17 08:21:57;;;;;;;5.90;5.40;;;24.60;1.40;;;26.21;59.72;95274.30;646518;212;31623;-72
2021/06/17 08:24:43;;;;;;;6.05;5.45;;;24.60;1.40;;;26.49;59.15;95278.02;648392;212;31562;-71
2021/06/17 08:27:22;;;;;;;4.68;4.28;;;24.80;1.40;;;26.49;56.73;95276.16;646778;212;32372;-71
2021/06/17 08:30:04;;;;;;;5.78;5.18;;;25.00;1.40;;;26.62;56.57;95278.24;618578;222;43139;-71
2021/06/17 08:32:47;;;;;;;5.30;4.90;;;25.00;1.40;;;26.67;56.89;95279.77;648090;215;42754;-70
2021/06/17 08:35:52;;;;;;;5.20;4.70;;;25.20;1.40;;;27.05;56.50;95281.69;646773;212;32158;-70
2021/06/17 08:38:40;;;;;;;5.15;4.65;;;25.70;1.40;;;27.33;55.11;95281.50;647777;216;31574;-72
2021/06/17 08:41:26;;;;;;;4.80;4.30;;;26.00;1.40;;;27.54;54.13;95277.92;645475;216;31606;-70
2021/06/17 08:44:08;;;;;;;4.93;4.53;;;26.10;1.40;;;27.32;52.45;95278.56;649720;212;31757;-70
2021/06/17 08:46:51;;;;;;;5.32;4.12;;;25.90;1.40;;;27.54;53.61;95275.45;645687;216;31593;-71
2021/06/17 08:49:34;;;;;;;4.82;4.43;;;26.20;1.40;;;27.56;50.91;95276.67;646172;216;31573;-71
2021/06/17 08:52:16;;;;;;;5.50;5.00;;;26.10;1.40;;;27.62;52.35;95275.21;647891;212;31569;-71
2021/06/17 08:54:58;;;;;;;5.60;5.10;;;26.10;1.40;;;27.78;50.11;95269.83;647729;212;32074;-70
2021/06/17 08:57:39;;;;;;;5.30;4.80;;;26.10;1.40;;;28.26;50.55;95268.50;619675;226;31921;-71
2021/06/17 09:00:29;;;;;;;5.65;5.15;;;26.60;1.40;;;28.69;52.67;95268.52;647180;212;31639;-70
2021/06/17 09:03:11;;;;;;;5.22;4.80;;;26.90;1.40;;;28.52;50.37;95266.97;651041;216;31579;-71
2021/06/17 09:05:53;;;;;;;5.50;4.68;;;26.90;1.40;;;28.73;50.52;95270.39;646401;216;31585;-71
2021/06/17 09:08:34;;;;;;;5.62;5.12;;;27.20;1.40;;;28.97;50.14;95270.82;645482;216;31595;-71
2021/06/17 09:11:18;;;;;;;5.87;5.25;;;27.10;1.40;;;29.27;50.45;95273.20;645992;216;31584;-71
2021/06/17 09:14:14;;;;;;;6.50;5.60;;;27.50;1.40;;;29.47;50.68;95277.95;644834;212;31783;-71
2021/06/17 09:17:01;;;;;;;6.03;5.43;;;27.50;1.40;;;29.51;49.03;95278.77;646503;212;31690;-71
2021/06/17 09:19:49;;;;;;;6.18;5.35;;;27.60;1.40;;;29.73;48.02;95276.60;646918;212;31994;-71
2021/06/17 09:22:35;;;;;;;6.37;5.80;;;28.00;1.40;;;30.60;48.83;95271.34;646859;216;31656;-72
2021/06/17 09:25:22;;;;;;;6.30;5.70;;;28.60;1.40;;;31.01;47.13;95273.76;645982;212;32281;-71
2021/06/17 09:28:09;;;;;;;5.70;5.10;;;29.00;1.40;;;32.20;45.72;95277.16;646600;216;42697;-71
2021/06/17 09:30:51;;;;;;;6.30;5.40;;;31.10;1.40;;;33.90;41.99;95284.16;644868;212;32028;-71
2021/06/17 09:35:52;;;;;;;4.90;4.50;;;32.90;1.40;;;35.59;40.63;95282.54;645741;216;32181;-71
2021/06/17 09:38:33;;;;;;;4.72;4.32;;;33.00;1.40;;;36.81;35.89;95280.80;646898;212;31566;-72
2021/06/17 09:41:34;;;;;;;4.80;4.20;;;33.40;1.40;;;37.42;33.06;95286.76;646821;212;31597;-72
2021/06/17 09:44:35;;;;;;;4.85;4.30;;;33.60;1.40;;;38.65;33.84;95282.56;645987;216;31570;-72
2021/06/17 09:47:21;;;;;;;4.90;4.30;;;33.40;1.40;;;37.93;31.98;95287.83;645659;212;31847;-72
2021/06/17 09:50:08;;;;;;;4.20;3.80;;;32.80;1.40;;;38.01;30.39;95290.39;646894;212;31691;-72
2021/06/17 09:52:52;;;;;;;3.65;3.30;;;33.00;1.40;;;39.65;32.32;95288.38;647099;216;31598;-73
2021/06/17 09:55:40;;;;;;;4.53;4.00;;;33.80;1.40;;;39.76;30.59;95296.59;630464;221;31936;-73
2021/06/17 09:58:35;;;;;;;3.80;3.50;;;34.00;1.40;;;40.88;32.75;95286.20;645922;216;31603;-73
2021/06/17 10:01:34;;;;;;;4.30;3.10;;;34.40;1.40;;;39.42;28.06;95291.42;646216;216;31617;-72
2021/06/17 10:04:13;;;;;;;5.70;5.15;;;32.90;1.40;;;42.05;27.79;95287.90;647184;212;31586;-73
2021/06/17 10:06:55;;;;;;;4.30;3.95;;;34.20;1.40;;;40.63;26.95;95291.21;646033;216;31619;-72
2021/06/17 10:09:42;;;;;;;5.30;4.80;;;34.00;1.40;;;41.60;27.31;95294.45;646432;212;31523;-73
2021/06/17 10:12:29;;;;;;;4.43;4.03;;;34.00;1.40;;;40.62;27.72;95296.55;647552;212;31677;-73
2021/06/17 10:15:17;;;;;;;3.87;3.58;;;33.70;1.40;;;42.26;28.03;95290.10;637623;216;31752;-73
2021/06/17 10:17:59;;;;;;;3.78;3.37;;;34.60;1.40;;;41.63;26.65;95292.92;645109;216;31988;-72
2021/06/17 10:20:41;;;;;;;6.53;3.30;;;34.20;1.40;;;42.76;25.50;95285.99;646637;216;42719;-73
2021/06/17 10:23:22;;;;;;;3.50;3.00;;;34.50;1.40;;;42.21;26.98;95279.34;645873;212;31710;-73
2021/06/17 10:26:04;;;;;;;3.10;2.90;;;34.50;1.40;;;41.97;26.41;95280.94;646383;212;31708;-73
2021/06/17 10:28:49;;;;;;;3.80;3.00;;;34.50;1.40;;;42.93;24.77;95279.66;647329;212;31749;-73
2021/06/17 10:31:45;;;;;;;3.33;3.03;;;34.60;1.40;;;44.18;24.13;95279.71;646270;216;31625;-72
2021/06/17 10:36:23;;;;;;;3.85;2.90;;;35.10;1.40;;;43.95;22.67;95279.39;645193;216;31697;-73
2021/06/17 10:39:15;;;;;;;2.97;2.77;;;34.90;1.40;;;44.74;21.63;95276.78;647607;212;31668;-73
2021/06/17 10:42:10;;;;;;;3.27;3.00;;;34.80;1.40;;;43.63;24.05;95272.30;646254;216;31711;-72
2021/06/17 10:44:54;;;;;;;3.30;3.10;;;34.70;1.40;;;43.32;24.84;95274.12;646422;216;31800;-73
2021/06/17 10:47:53;;;;;;;3.10;2.87;;;34.30;1.40;;;43.36;23.32;95267.08;646788;212;42202;-72
2021/06/17 10:50:44;;;;;;;3.83;3.40;;;34.20;1.40;;;43.85;23.45;95273.77;645147;216;31659;-73
2021/06/17 10:53:32;;;;;;;4.93;3.15;;;34.70;1.40;;;41.99;23.45;95263.97;645963;212;31604;-76
2021/06/17 10:56:17;;;;;;;3.37;3.08;;;33.90;1.40;;;41.21;25.25;95268.02;646161;216;32118;-75
2021/06/17 10:59:01;;;;;;;3.37;3.17;;;34.00;1.40;;;39.90;25.67;95264.50;647093;216;31713;-75
2021/06/17 11:01:45;;;;;;;4.78;3.15;;;33.60;1.40;;;40.15;26.72;95256.79;646586;216;31823;-75
2021/06/17 11:04:38;;;;;;;3.12;2.92;;;33.70;1.40;;;40.03;27.54;95260.32;617768;222;31930;-75
2021/06/17 11:07:24;;;;;;;4.20;3.80;;;33.70;1.40;;;39.51;28.36;95258.04;618877;222;42626;-73
2021/06/17 11:10:05;;;;;;;3.53;3.20;;;33.60;1.40;;;40.34;26.00;95251.14;646316;213;42381;-73
2021/06/17 11:12:45;;;;;;;3.90;3.03;;;34.10;1.40;;;39.78;26.69;95251.45;646267;213;31701;-74
2021/06/17 11:15:34;;;;;;;3.67;3.10;;;34.10;1.40;;;39.34;28.10;95248.62;612498;226;32445;-73
2021/06/17 11:18:16;;;;;;;3.50;3.20;;;33.90;1.40;;;39.12;26.58;95246.31;646597;212;31630;-74
2021/06/17 11:20:57;;;;;;;5.55;2.60;;;33.70;1.40;;;38.58;26.55;95248.66;644814;212;31597;-75
2021/06/17 11:23:42;;;;;;;3.20;2.90;;;33.50;1.40;;;38.20;27.59;95242.95;646697;216;32221;-74
2021/06/17 11:26:44;;;;;;;2.80;2.60;;;33.30;1.40;;;39.11;27.12;95243.31;647454;212;31703;-75
2021/06/17 11:30:00;;;;;;;3.60;2.60;;;34.00;1.40;;;38.30;27.29;95243.99;646280;216;31885;-74
2021/06/17 11:32:41;;;;;;;3.50;2.87;;;33.90;1.40;;;38.06;26.52;95245.64;647287;216;31883;-74
2021/06/17 11:36:00;;;;;;;2.90;2.70;;;33.80;1.40;;;38.38;28.14;95244.72;644515;212;31762;-73
2021/06/17 11:38:41;;;;;;;3.30;2.70;;;33.90;1.40;;;38.76;26.02;95240.04;647515;216;31699;-74
2021/06/17 11:41:23;;;;;;;2.90;2.70;;;34.20;1.40;;;38.11;24.66;95237.91;646861;216;31945;-74
2021/06/17 11:44:05;;;;;;;4.47;2.70;;;33.50;1.40;;;38.68;26.25;95237.83;644712;216;31707;-73
2021/06/17 11:46:48;;;;;;;2.87;2.70;;;33.90;1.40;;;38.48;24.72;95232.31;646982;216;31634;-73
2021/06/17 11:49:34;;;;;;;2.90;2.70;;;33.90;1.40;;;37.43;25.41;95235.62;642726;217;31580;-73
2021/06/17 11:52:22;;;;;;;2.90;2.70;;;34.10;1.40;;;39.25;24.60;95230.72;644958;216;31736;-72
2021/06/17 11:55:03;;;;;;;3.10;2.75;;;34.30;1.40;;;41.32;23.70;95228.45;647869;212;31712;-72
2021/06/17 11:57:45;;;;;;;2.78;2.58;;;35.20;1.40;;;42.42;21.37;95227.77;646839;212;31760;-71
2021/06/17 12:00:33;;;;;;;3.05;2.47;;;34.90;1.40;;;44.15;21.55;95228.23;618183;222;32395;-74
2021/06/17 12:03:22;;;;;;;3.03;2.83;;;35.70;1.40;;;44.48;20.39;95229.31;616195;224;31930;-72